Time;durP1;ratioP1;P1;durP2;ratioP2;P2;SDS_P1;SDS_P2;PMS_P1;PMS_P2;Temp;Humidity;BMP_temperature;BMP_pressure;BME280_temperature;BME280_humidity;BME280_pressure;Samples;Min_cycle;Max_cycle;Signal;HPM_P1;HPM_P2
2022/03/05 00:00:33;;;;;;;11.48;6.32;;;-0.50;99.90;;;;;;6369807;22;20019;-86
2022/03/05 00:03:00;;;;;;;15.95;7.10;;;-0.50;99.90;;;;;;6370105;22;20014;-86
2022/03/05 00:05:26;;;;;;;12.32;6.80;;;-0.50;99.90;;;;;;6315822;22;20061;-85
2022/03/05 00:07:52;;;;;;;13.82;7.35;;;-0.60;99.90;;;;;;6342439;22;20050;-87
2022/03/05 00:10:19;;;;;;;10.55;5.97;;;-0.60;99.90;;;;;;6369937;22;20022;-88
2022/03/05 00:12:49;;;;;;;10.55;6.60;;;-0.60;99.90;;;;;;6343131;22;20043;-85
2022/03/05 00:15:15;;;;;;;10.80;6.13;;;-0.70;99.90;;;;;;6342090;22;20097;-85
2022/03/05 00:17:40;;;;;;;10.60;6.22;;;-0.70;99.90;;;;;;6342531;22;20394;-88
2022/03/05 00:20:07;;;;;;;10.50;5.80;;;-0.70;99.90;;;;;;6370068;22;20018;-84
2022/03/05 00:22:32;;;;;;;11.63;6.65;;;-0.80;99.90;;;;;;6342231;22;20038;-85
2022/03/05 00:24:58;;;;;;;13.10;6.80;;;-0.80;99.90;;;;;;6369994;22;20014;-87
2022/03/05 00:27:24;;;;;;;11.68;6.40;;;-0.80;99.90;;;;;;6370011;22;20023;-88
2022/03/05 00:29:50;;;;;;;11.05;6.40;;;-0.90;99.90;;;;;;6369942;22;20501;-87
2022/03/05 00:32:16;;;;;;;11.70;7.10;;;-0.90;99.90;;;;;;6341956;22;20034;-88
2022/03/05 00:34:42;;;;;;;11.73;6.47;;;-0.90;99.90;;;;;;6369887;22;20014;-88
2022/03/05 00:37:08;;;;;;;11.52;7.05;;;-0.90;99.90;;;;;;6342119;22;20019;-85
2022/03/05 00:39:35;;;;;;;13.25;7.50;;;-0.90;99.90;;;;;;6342204;22;20022;-88
2022/03/05 00:42:00;;;;;;;11.52;6.93;;;-0.90;99.90;;;;;;6342131;22;20019;-86
2022/03/05 00:44:28;;;;;;;12.40;7.25;;;-0.90;99.90;;;;;;6369858;22;20591;-85
2022/03/05 00:46:54;;;;;;;12.15;7.13;;;-0.90;99.90;;;;;;6370049;22;20093;-87
2022/03/05 00:49:20;;;;;;;13.80;7.65;;;-0.90;99.90;;;;;;6341948;22;20030;-87
2022/03/05 00:51:46;;;;;;;13.60;8.32;;;-0.90;99.90;;;;;;6341964;22;20026;-86
2022/03/05 00:54:11;;;;;;;15.38;7.75;;;-0.90;99.90;;;;;;6342031;22;20019;-86
2022/03/05 00:56:37;;;;;;;13.52;8.10;;;-0.90;99.90;;;;;;6341642;22;20029;-86
2022/03/05 00:59:03;;;;;;;13.18;7.85;;;-0.90;99.90;;;;;;6341903;22;20021;-86
2022/03/05 01:01:28;;;;;;;12.35;7.10;;;-0.90;99.90;;;;;;6341995;22;20324;-85
2022/03/05 01:03:54;;;;;;;14.45;7.85;;;-1.00;99.90;;;;;;6369715;22;20025;-86
2022/03/05 01:06:20;;;;;;;12.15;7.57;;;-1.00;99.90;;;;;;6369654;22;20026;-86
2022/03/05 01:08:45;;;;;;;11.48;7.35;;;-1.10;99.90;;;;;;6341596;22;20022;-86
2022/03/05 01:11:15;;;;;;;12.35;7.15;;;-1.20;99.90;;;;;;6341727;22;20050;-85
2022/03/05 01:13:43;;;;;;;15.00;8.20;;;-1.20;99.90;;;;;;6370474;22;20018;-86
2022/03/05 01:16:09;;;;;;;12.63;7.50;;;-1.30;99.90;;;;;;6371523;22;20022;-87
2022/03/05 01:18:35;;;;;;;13.35;7.85;;;-1.40;99.90;;;;;;6343521;22;20045;-85
2022/03/05 01:21:01;;;;;;;15.55;8.32;;;-1.40;99.90;;;;;;6343456;22;20026;-86
2022/03/05 01:23:26;;;;;;;14.13;8.30;;;-1.40;99.90;;;;;;6343601;22;20022;-86
2022/03/05 01:25:52;;;;;;;13.98;9.07;;;-1.50;99.90;;;;;;6343508;22;20030;-86
2022/03/05 01:28:18;;;;;;;13.15;8.38;;;-1.50;99.90;;;;;;6371432;22;20024;-86
2022/03/05 01:30:44;;;;;;;13.73;8.30;;;-1.50;99.90;;;;;;6371398;22;20030;-88
2022/03/05 01:33:09;;;;;;;13.10;8.25;;;-1.50;99.90;;;;;;6343180;22;20356;-87
2022/03/05 01:35:35;;;;;;;13.55;8.65;;;-1.40;99.90;;;;;;6343656;22;20014;-86
2022/03/05 01:38:06;;;;;;;16.30;8.50;;;-1.40;99.90;;;;;;6343785;22;20436;-85
2022/03/05 01:40:32;;;;;;;14.95;8.68;;;-1.30;99.90;;;;;;6317203;22;20037;-88
2022/03/05 01:42:57;;;;;;;15.65;9.13;;;-1.40;99.90;;;;;;6342843;22;20460;-87
2022/03/05 01:45:23;;;;;;;14.20;9.02;;;-1.40;99.90;;;;;;6343788;22;20023;-88
2022/03/05 01:47:49;;;;;;;14.55;9.13;;;-1.40;99.90;;;;;;6317360;22;20069;-85
2022/03/05 01:50:14;;;;;;;15.93;9.18;;;-1.40;99.90;;;;;;6343372;22;20018;-89
2022/03/05 01:52:59;;;;;;;17.48;8.90;;;-1.30;99.90;;;;;;6343950;22;20096;-88
2022/03/05 01:55:55;;;;;;;15.10;8.40;;;-1.30;99.90;;;;;;6317501;22;20050;-88
2022/03/05 01:58:21;;;;;;;13.38;8.20;;;-1.30;99.90;;;;;;6368582;22;20095;-87
2022/03/05 02:05:57;;;;;;;13.23;7.90;;;-1.30;99.90;;;;;;6368711;22;20026;-86
2022/03/05 02:08:26;;;;;;;14.40;9.02;;;-1.30;99.90;;;;;;6317433;22;20014;-84
2022/03/05 02:10:52;;;;;;;14.32;8.82;;;-1.30;99.90;;;;;;6317260;22;20347;-85
2022/03/05 02:13:17;;;;;;;17.42;8.85;;;-1.30;99.90;;;;;;6316909;22;20018;-83
2022/03/05 02:15:43;;;;;;;14.98;8.88;;;-1.30;99.90;;;;;;6317094;22;20065;-85
2022/03/05 02:18:09;;;;;;;15.32;8.98;;;-1.30;99.90;;;;;;6316649;22;20106;-86
2022/03/05 02:20:35;;;;;;;17.60;8.52;;;-1.20;99.90;;;;;;6342993;22;20014;-85
2022/03/05 02:23:10;;;;;;;14.88;8.27;;;-1.30;99.90;;;;;;6343263;22;20018;-86
2022/03/05 02:25:35;;;;;;;14.48;8.93;;;-1.20;99.90;;;;;;6316406;22;20014;-86
2022/03/05 02:28:01;;;;;;;16.58;9.15;;;-1.20;99.90;;;;;;6316789;22;20147;-86
2022/03/05 02:30:27;;;;;;;14.18;8.77;;;-1.20;99.90;;;;;;6342717;22;20018;-86
2022/03/05 02:32:53;;;;;;;15.48;8.45;;;-1.20;99.90;;;;;;6342587;22;20015;-86
2022/03/05 02:35:18;;;;;;;17.92;9.07;;;-1.20;99.90;;;;;;6316590;22;20462;-86
2022/03/05 02:37:44;;;;;;;13.73;8.32;;;-1.20;99.90;;;;;;6316478;22;20014;-86
2022/03/05 02:40:10;;;;;;;12.73;7.60;;;-1.20;99.90;;;;;;6316562;22;20065;-86
2022/03/05 02:42:36;;;;;;;15.03;8.17;;;-1.30;99.90;;;;;;6316729;22;20049;-86
2022/03/05 02:45:02;;;;;;;15.57;9.18;;;-1.30;99.90;;;;;;6342408;22;20276;-86
2022/03/05 02:47:28;;;;;;;14.27;8.82;;;-1.30;99.90;;;;;;6316021;22;20097;-86
2022/03/05 02:49:54;;;;;;;14.48;8.77;;;-1.40;99.90;;;;;;6316341;22;20042;-86
2022/03/05 02:52:19;;;;;;;15.32;9.15;;;-1.40;99.90;;;;;;6316298;22;20522;-86
2022/03/05 02:54:45;;;;;;;16.02;8.68;;;-1.40;99.90;;;;;;6342863;22;20320;-86
2022/03/05 02:57:10;;;;;;;13.07;8.15;;;-1.40;99.90;;;;;;6370575;22;20022;-86
2022/03/05 02:59:36;;;;;;;14.18;9.07;;;-1.40;99.90;;;;;;6342783;22;20048;-86
2022/03/05 03:02:02;;;;;;;15.02;8.70;;;-1.40;99.90;;;;;;6316357;22;20049;-86
2022/03/05 03:04:28;;;;;;;12.85;8.10;;;-1.30;99.90;;;;;;6342235;22;20041;-86
2022/03/05 03:06:53;;;;;;;15.02;8.20;;;-1.30;99.90;;;;;;6342753;22;20018;-86
2022/03/05 03:09:19;;;;;;;13.23;8.10;;;-1.30;99.90;;;;;;6370464;22;20072;-86
2022/03/05 03:11:45;;;;;;;13.27;7.95;;;-1.40;99.90;;;;;;6342742;22;20061;-86
2022/03/05 03:14:10;;;;;;;12.63;8.25;;;-1.40;99.90;;;;;;6316436;22;20033;-86
2022/03/05 03:16:36;;;;;;;14.05;7.90;;;-1.40;99.90;;;;;;6342609;22;20021;-86
2022/03/05 03:19:02;;;;;;;14.95;7.57;;;-1.50;99.90;;;;;;6342442;22;20473;-86
2022/03/05 03:21:27;;;;;;;14.60;7.90;;;-1.60;99.90;;;;;;6342432;22;20019;-86
2022/03/05 03:23:53;;;;;;;13.55;7.72;;;-1.60;99.90;;;;;;6370209;22;20022;-87
2022/03/05 03:26:19;;;;;;;14.30;7.35;;;-1.60;99.90;;;;;;6342528;22;20019;-85
2022/03/05 03:28:44;;;;;;;15.65;8.23;;;-1.60;99.90;;;;;;6316524;22;20018;-86
2022/03/05 03:31:10;;;;;;;14.20;8.07;;;-1.60;99.90;;;;;;6370331;22;20480;-87
2022/03/05 03:33:36;;;;;;;13.38;7.47;;;-1.50;99.90;;;;;;6342415;22;20022;-86
2022/03/05 03:36:02;;;;;;;12.07;7.18;;;-1.50;99.90;;;;;;6341929;22;20343;-87
2022/03/05 03:38:27;;;;;;;14.50;7.65;;;-1.50;99.90;;;;;;6316153;22;20345;-86
2022/03/05 03:40:53;;;;;;;13.30;7.20;;;-1.40;99.90;;;;;;6370316;22;20014;-86
2022/03/05 03:43:19;;;;;;;11.90;7.30;;;-1.40;99.90;;;;;;6342264;22;20022;-87
2022/03/05 03:45:44;;;;;;;11.90;7.20;;;-1.40;99.90;;;;;;6342248;22;20018;-87
2022/03/05 03:48:10;;;;;;;12.85;7.10;;;-1.40;99.90;;;;;;6342467;22;20014;-87
2022/03/05 03:50:36;;;;;;;13.27;7.35;;;-1.40;99.90;;;;;;6316203;22;20090;-86
2022/03/05 03:53:02;;;;;;;13.38;7.25;;;-1.40;99.90;;;;;;6316276;22;20071;-86
2022/03/05 03:55:28;;;;;;;12.40;6.97;;;-1.40;99.90;;;;;;6342177;22;20116;-86
2022/03/05 03:57:54;;;;;;;12.40;7.05;;;-1.40;99.90;;;;;;6370377;22;20053;-86
2022/03/05 04:00:22;;;;;;;12.63;6.60;;;-1.50;99.90;;;;;;6341967;22;20044;-87
2022/03/05 04:02:48;;;;;;;12.02;6.93;;;-1.50;99.90;;;;;;6370081;22;20020;-87
2022/03/05 04:05:13;;;;;;;12.90;6.82;;;-1.60;99.90;;;;;;6315776;22;20444;-86
2022/03/05 04:10:24;;;;;;;12.07;6.40;;;-1.60;99.90;;;;;;6342244;22;20053;-87
2022/03/05 04:12:50;;;;;;;10.80;6.72;;;-1.70;99.90;;;;;;6316142;22;20022;-86
2022/03/05 04:15:17;;;;;;;11.55;6.40;;;-1.60;99.90;;;;;;6370141;22;20021;-87
2022/03/05 04:17:43;;;;;;;12.43;6.47;;;-1.60;99.90;;;;;;6342215;22;20028;-86
2022/03/05 04:20:09;;;;;;;11.07;6.65;;;-1.70;99.90;;;;;;6342192;22;20062;-86
2022/03/05 04:22:35;;;;;;;10.10;6.30;;;-1.70;99.90;;;;;;6342147;22;20026;-86
2022/03/05 04:25:04;;;;;;;11.48;6.88;;;-1.70;99.90;;;;;;6369990;22;20066;-86
2022/03/05 04:27:29;;;;;;;12.18;6.70;;;-1.70;99.90;;;;;;6368429;22;20097;-86
2022/03/05 04:29:55;;;;;;;12.20;6.80;;;-1.70;99.90;;;;;;6342285;22;20057;-87
2022/03/05 04:32:21;;;;;;;12.68;6.75;;;-1.70;99.90;;;;;;6341972;22;20022;-87
2022/03/05 04:34:46;;;;;;;11.65;6.72;;;-1.70;99.90;;;;;;6342172;22;20050;-87
2022/03/05 04:37:12;;;;;;;9.38;6.28;;;-1.80;99.90;;;;;;6369998;22;20022;-87
2022/03/05 04:39:38;;;;;;;13.07;6.68;;;-1.70;99.90;;;;;;6369968;22;20458;-87
2022/03/05 04:42:04;;;;;;;11.35;6.53;;;-1.80;99.90;;;;;;6315906;22;20075;-88
2022/03/05 04:44:29;;;;;;;12.88;6.57;;;-1.80;99.90;;;;;;6369799;22;20045;-87
2022/03/05 04:46:55;;;;;;;10.20;6.20;;;-1.80;99.90;;;;;;6370218;22;20022;-87
2022/03/05 04:49:21;;;;;;;10.55;6.43;;;-1.80;99.90;;;;;;6344007;22;20018;-87
2022/03/05 04:51:47;;;;;;;11.90;6.75;;;-1.80;99.90;;;;;;6343917;22;20014;-87
2022/03/05 04:54:13;;;;;;;12.43;6.60;;;-1.80;99.90;;;;;;6371876;22;20050;-86
2022/03/05 04:56:39;;;;;;;13.20;6.30;;;-1.70;99.90;;;;;;6343778;22;20014;-86
2022/03/05 04:59:04;;;;;;;12.23;6.25;;;-1.70;99.90;;;;;;6371921;22;20018;-86
2022/03/05 05:01:30;;;;;;;12.70;6.35;;;-1.70;99.90;;;;;;6371634;22;20029;-85
2022/03/05 05:03:56;;;;;;;13.30;7.10;;;-1.60;99.90;;;;;;6371520;22;20458;-85
2022/03/05 05:06:22;;;;;;;13.00;6.93;;;-1.60;99.90;;;;;;6338437;22;20015;-85
2022/03/05 05:08:48;;;;;;;12.43;6.40;;;-1.50;99.90;;;;;;6338227;22;20062;-86
2022/03/05 05:11:14;;;;;;;14.43;7.55;;;-1.40;99.90;;;;;;6338521;22;20054;-85
2022/03/05 05:13:40;;;;;;;11.85;7.22;;;-1.40;99.90;;;;;;6339875;22;20018;-84
2022/03/05 05:16:06;;;;;;;14.23;7.20;;;-1.30;99.90;;;;;;6339884;22;20019;-85
2022/03/05 05:18:33;;;;;;;12.02;6.93;;;-1.30;99.90;;;;;;6340087;22;20015;-85
2022/03/05 05:20:59;;;;;;;12.13;7.00;;;-1.30;99.90;;;;;;6340035;22;20027;-85
2022/03/05 05:23:25;;;;;;;14.88;7.20;;;-1.30;99.90;;;;;;6339745;22;20026;-84
2022/03/05 05:25:51;;;;;;;14.00;7.10;;;-1.30;99.90;;;;;;6340042;22;20057;-85
2022/03/05 05:28:17;;;;;;;12.85;7.50;;;-1.40;99.90;;;;;;6339871;22;20023;-86
2022/03/05 05:30:43;;;;;;;13.52;6.88;;;-1.40;99.90;;;;;;6338008;22;20105;-85
2022/03/05 05:33:08;;;;;;;16.20;7.20;;;-1.40;99.90;;;;;;6339622;22;20027;-85
2022/03/05 05:35:34;;;;;;;11.65;7.30;;;-1.40;99.90;;;;;;6339842;22;20268;-86
2022/03/05 05:37:59;;;;;;;14.25;7.45;;;-1.40;99.90;;;;;;6339875;22;20470;-83
2022/03/05 05:40:26;;;;;;;11.73;7.03;;;-1.40;99.90;;;;;;6311904;22;20026;-84
2022/03/05 05:42:51;;;;;;;11.93;6.80;;;-1.40;99.90;;;;;;6311990;22;20055;-83
2022/03/05 05:45:17;;;;;;;11.27;7.03;;;-1.40;99.90;;;;;;6339584;22;20077;-84
2022/03/05 05:47:42;;;;;;;12.93;7.07;;;-1.40;99.90;;;;;;6339661;22;20018;-83
2022/03/05 05:50:09;;;;;;;13.23;7.82;;;-1.50;99.90;;;;;;6337916;22;20336;-85
2022/03/05 05:52:40;;;;;;;11.95;7.15;;;-1.50;99.90;;;;;;6338061;22;20422;-84
2022/03/05 05:55:36;;;;;;;14.20;7.68;;;-1.50;99.90;;;;;;6312365;22;20015;-84
2022/03/05 05:58:02;;;;;;;12.25;7.75;;;-1.50;99.90;;;;;;6312064;22;20455;-88
2022/03/05 06:00:28;;;;;;;11.83;7.07;;;-1.60;99.90;;;;;;6312215;22;20018;-88
2022/03/05 06:02:54;;;;;;;13.50;7.78;;;-1.60;99.90;;;;;;6312429;22;20023;-88
2022/03/05 06:05:20;;;;;;;13.35;7.78;;;-1.60;99.90;;;;;;6311848;22;20018;-88
2022/03/05 06:07:45;;;;;;;12.07;7.32;;;-1.60;99.90;;;;;;6312607;22;20014;-89
2022/03/05 06:10:11;;;;;;;13.95;8.00;;;-1.50;99.90;;;;;;6312748;22;20158;-89
2022/03/05 06:13:35;;;;;;;13.93;7.18;;;-1.50;99.90;;;;;;6312853;22;20019;-89
2022/03/05 06:16:13;;;;;;;13.38;7.75;;;-1.50;99.90;;;;;;6280893;22;20026;-89
2022/03/05 06:18:39;;;;;;;15.55;7.97;;;-1.50;99.90;;;;;;6255131;22;20026;-88
2022/03/05 06:21:05;;;;;;;15.37;7.50;;;-1.50;99.90;;;;;;6255260;22;20491;-91
2022/03/05 06:23:32;;;;;;;13.13;8.05;;;-1.50;99.90;;;;;;6254853;22;20368;-89
2022/03/05 06:25:58;;;;;;;13.23;8.23;;;-1.50;99.90;;;;;;6254845;22;20090;-88
2022/03/05 06:28:23;;;;;;;13.75;7.63;;;-1.50;99.90;;;;;;6255048;22;20073;-89
2022/03/05 06:30:49;;;;;;;13.80;7.93;;;-1.50;99.90;;;;;;6254852;22;20019;-90
2022/03/05 06:33:15;;;;;;;15.70;7.70;;;-1.50;99.90;;;;;;6255083;22;20024;-89
2022/03/05 06:35:41;;;;;;;15.15;8.10;;;-1.50;99.90;;;;;;6254640;22;20351;-89
2022/03/05 06:38:06;;;;;;;14.05;7.88;;;-1.50;99.90;;;;;;6254970;22;20016;-88
2022/03/05 06:40:32;;;;;;;13.35;8.07;;;-1.50;99.90;;;;;;6254991;22;20104;-89
2022/03/05 06:42:58;;;;;;;12.43;7.82;;;-1.50;99.90;;;;;;6254851;22;20023;-91
2022/03/05 06:45:42;;;;;;;13.45;8.70;;;-1.50;99.90;;;;;;6255509;22;20126;-88
2022/03/05 06:48:09;;;;;;;14.13;8.65;;;-1.50;99.90;;;;;;6280492;22;20019;-88
2022/03/05 06:50:35;;;;;;;13.23;8.77;;;-1.50;99.90;;;;;;6254869;22;20023;-89
2022/03/05 06:53:01;;;;;;;17.05;8.80;;;-1.40;99.90;;;;;;6255077;22;20094;-90
2022/03/05 06:56:15;;;;;;;15.30;8.68;;;-1.30;99.90;;;;;;6255131;22;20488;-90
2022/03/05 06:59:28;;;;;;;14.82;8.73;;;-1.30;99.90;;;;;;6259171;22;20456;-88
2022/03/05 07:01:53;;;;;;;13.85;8.50;;;-1.10;99.90;;;;;;6311317;22;20050;-87
2022/03/05 07:04:19;;;;;;;14.30;8.15;;;-1.10;99.90;;;;;;6338214;22;20025;-85
2022/03/05 07:06:44;;;;;;;13.10;8.45;;;-1.00;99.90;;;;;;6316341;22;20064;-85
2022/03/05 07:09:10;;;;;;;14.00;8.48;;;-0.90;99.90;;;;;;6316094;22;20018;-85
2022/03/05 07:11:36;;;;;;;17.20;9.13;;;-0.90;99.90;;;;;;6342288;22;20025;-85
2022/03/05 07:14:02;;;;;;;14.02;8.23;;;-0.70;99.90;;;;;;6316459;22;20023;-87
2022/03/05 07:16:28;;;;;;;15.30;8.48;;;-0.50;99.90;;;;;;6313942;22;20022;-88
2022/03/05 07:18:54;;;;;;;13.45;7.93;;;-0.20;99.90;;;;;;6317081;22;20018;-87
2022/03/05 07:21:19;;;;;;;16.50;8.65;;;0.00;99.90;;;;;;6343112;22;20018;-86
2022/03/05 07:23:45;;;;;;;15.15;8.50;;;0.10;99.90;;;;;;6317024;22;20077;-89
2022/03/05 07:26:35;;;;;;;14.88;9.27;;;0.10;99.90;;;;;;6316826;22;20389;-88
2022/03/05 07:29:14;;;;;;;14.55;8.25;;;0.20;99.90;;;;;;6317126;22;20063;-85
2022/03/05 07:31:39;;;;;;;14.32;8.75;;;0.10;99.90;;;;;;6340921;22;20391;-85
2022/03/05 07:34:05;;;;;;;15.00;8.70;;;0.00;99.90;;;;;;6313896;22;20023;-84
2022/03/05 07:36:31;;;;;;;13.68;8.40;;;0.00;99.90;;;;;;6367744;22;20229;-85
2022/03/05 07:38:56;;;;;;;14.32;8.88;;;0.00;99.90;;;;;;6341318;22;20046;-85
2022/03/05 07:41:22;;;;;;;14.18;8.23;;;0.00;99.90;;;;;;6370246;22;20018;-83
2022/03/05 07:43:48;;;;;;;15.52;8.20;;;0.10;99.90;;;;;;6370000;22;20014;-83
2022/03/05 07:46:13;;;;;;;12.25;8.10;;;0.10;99.90;;;;;;6342222;22;20022;-85
2022/03/05 07:48:39;;;;;;;17.58;8.77;;;0.10;99.90;;;;;;6342218;22;20019;-84
2022/03/05 07:51:05;;;;;;;14.43;8.95;;;0.20;99.90;;;;;;6370070;22;20028;-84
2022/03/05 07:53:31;;;;;;;13.55;7.93;;;0.20;99.90;;;;;;6342332;22;20022;-85
2022/03/05 07:55:57;;;;;;;13.05;8.18;;;0.20;99.90;;;;;;6342376;22;20014;-85
2022/03/05 07:58:23;;;;;;;14.38;8.98;;;0.30;99.90;;;;;;6342219;22;20328;-84
2022/03/05 08:00:49;;;;;;;14.40;8.70;;;0.40;99.90;;;;;;6337829;22;20055;-85
2022/03/05 08:03:15;;;;;;;14.77;9.27;;;0.40;99.90;;;;;;6315982;22;20068;-86
2022/03/05 08:05:41;;;;;;;15.45;9.00;;;0.50;99.90;;;;;;6342369;22;20018;-85
2022/03/05 08:08:07;;;;;;;15.37;8.47;;;0.60;99.90;;;;;;6316014;22;20093;-84
2022/03/05 08:10:33;;;;;;;15.80;8.90;;;0.60;99.90;;;;;;6342200;22;20533;-85
2022/03/05 08:12:59;;;;;;;16.48;9.52;;;0.80;99.90;;;;;;6342322;22;20054;-85
2022/03/05 08:15:24;;;;;;;17.80;8.75;;;0.70;99.90;;;;;;6342209;22;20018;-87
2022/03/05 08:18:01;;;;;;;15.48;8.52;;;0.80;99.90;;;;;;6341925;22;20010;-86
2022/03/05 08:20:47;;;;;;;17.33;9.48;;;0.90;99.90;;;;;;6344748;22;20451;-86
2022/03/05 08:23:13;;;;;;;13.55;8.93;;;1.00;99.90;;;;;;6315383;22;20011;-87
2022/03/05 08:25:39;;;;;;;17.10;9.80;;;1.00;99.90;;;;;;6344451;22;20423;-90
2022/03/05 08:28:05;;;;;;;16.23;9.33;;;1.10;99.90;;;;;;6345382;22;20477;-93
2022/03/05 08:30:31;;;;;;;20.58;9.43;;;1.10;99.90;;;;;;6318729;22;20022;-86
2022/03/05 08:32:57;;;;;;;15.48;8.95;;;1.30;99.90;;;;;;6344766;22;20022;-89
2022/03/05 08:35:22;;;;;;;16.08;8.77;;;1.30;99.90;;;;;;6319233;22;20122;-91
2022/03/05 08:37:48;;;;;;;16.65;9.40;;;1.40;99.90;;;;;;6319018;22;20018;-93
2022/03/05 08:40:15;;;;;;;17.05;9.60;;;1.40;99.90;;;;;;6345272;22;20022;-95
2022/03/05 08:42:42;;;;;;;20.92;10.80;;;1.50;99.90;;;;;;6345324;22;20017;-91
2022/03/05 08:45:09;;;;;;;15.25;8.88;;;1.50;99.90;;;;;;6344780;22;20034;-88
2022/03/05 08:47:35;;;;;;;16.23;8.95;;;1.50;99.90;;;;;;6344420;22;20022;-88
2022/03/05 08:50:05;;;;;;;15.98;9.35;;;1.60;99.90;;;;;;6318935;22;20103;-94
2022/03/05 08:52:37;;;;;;;16.20;8.73;;;1.60;99.90;;;;;;6345439;22;20080;-87
2022/03/05 08:55:05;;;;;;;15.50;8.75;;;1.70;99.90;;;;;;6372364;22;20010;-85
2022/03/05 08:57:30;;;;;;;;;;;1.70;99.90;;;;;;6344661;22;20022;-88
2022/03/05 08:59:56;;;;;;;17.55;8.57;;;1.70;99.90;;;;;;6318047;22;19967;-87
2022/03/05 09:02:21;;;;;;;14.43;8.50;;;1.80;99.90;;;;;;6371746;22;20050;-84
2022/03/05 09:04:47;;;;;;;13.48;8.20;;;1.80;99.90;;;;;;6371931;22;20018;-85
2022/03/05 09:07:13;;;;;;;14.77;9.07;;;1.80;99.90;;;;;;6318034;22;20127;-85
2022/03/05 09:09:38;;;;;;;15.07;8.15;;;1.90;99.90;;;;;;6344131;22;20022;-86
2022/03/05 09:12:05;;;;;;;15.35;8.70;;;2.00;99.90;;;;;;6344218;22;20071;-85
2022/03/05 09:14:30;;;;;;;13.32;8.48;;;2.00;99.90;;;;;;6344113;22;20498;-85
2022/03/05 09:16:56;;;;;;;16.13;9.43;;;2.10;99.90;;;;;;6318060;22;20015;-88
2022/03/05 09:19:22;;;;;;;14.02;8.20;;;2.10;99.90;;;;;;6318538;22;20023;-90
2022/03/05 09:21:48;;;;;;;15.60;8.73;;;2.20;99.90;;;;;;6371500;22;20053;-85
2022/03/05 09:24:14;;;;;;;18.93;9.13;;;2.20;99.90;;;;;;6375418;22;20060;-90
2022/03/05 09:26:40;;;;;;;15.95;9.13;;;2.30;99.90;;;;;;6319802;22;20019;-90
2022/03/05 09:29:05;;;;;;;14.30;8.98;;;2.40;99.90;;;;;;6315068;22;20020;-91
2022/03/05 09:31:32;;;;;;;14.73;8.90;;;2.50;99.90;;;;;;6317949;22;20045;-91
2022/03/05 09:33:58;;;;;;;15.38;9.23;;;2.50;99.90;;;;;;6318252;22;20025;-91
2022/03/05 09:36:23;;;;;;;15.13;9.10;;;2.50;99.90;;;;;;6319008;22;20015;-89
2022/03/05 09:38:49;;;;;;;17.17;9.10;;;2.60;99.90;;;;;;6318626;22;20338;-93
2022/03/05 09:41:16;;;;;;;16.95;8.95;;;2.60;99.90;;;;;;6318664;22;20015;-90
2022/03/05 09:43:43;;;;;;;16.95;9.23;;;2.70;99.90;;;;;;6318209;22;20022;-91
2022/03/05 09:46:10;;;;;;;16.83;8.55;;;2.70;99.90;;;;;;6318672;22;20050;-90
2022/03/05 09:51:14;;;;;;;14.50;8.93;;;2.80;99.90;;;;;;6401469;22;20024;-88
2022/03/05 09:53:40;;;;;;;17.67;9.10;;;2.80;99.90;;;;;;6349369;22;20014;-87
2022/03/05 09:56:15;;;;;;;16.30;8.53;;;2.90;99.90;;;;;;6349364;22;20022;-84
2022/03/05 09:58:41;;;;;;;14.70;8.68;;;3.00;99.90;;;;;;6375728;22;20342;-86
2022/03/05 10:01:07;;;;;;;14.98;8.30;;;3.00;99.90;;;;;;6375429;22;20049;-88
2022/03/05 10:03:49;;;;;;;14.80;8.48;;;3.10;99.90;;;;;;6348800;22;20018;-87
2022/03/05 10:06:19;;;;;;;17.15;9.13;;;3.20;99.90;;;;;;6348804;22;20018;-88
2022/03/05 10:08:45;;;;;;;14.40;8.63;;;3.30;99.90;;;;;;6403393;22;20017;-89
2022/03/05 10:12:18;;;;;;;17.95;9.95;;;3.30;99.90;;;;;;6348657;22;20010;-88
2022/03/05 10:18:31;;;;;;;15.15;8.23;;;3.50;99.90;;;;;;6260894;22;20031;-90
2022/03/05 10:20:59;;;;;;;13.98;8.13;;;3.60;99.90;;;;;;6332184;22;20094;-89
2022/03/05 10:23:25;;;;;;;14.90;8.65;;;3.70;99.90;;;;;;6343912;22;20014;-88
2022/03/05 10:25:53;;;;;;;14.57;8.18;;;3.80;99.90;;;;;;6348945;22;20078;-90
2022/03/05 10:28:27;;;;;;;16.83;9.57;;;3.80;99.90;;;;;;6354918;22;20025;-93
2022/03/05 10:33:45;;;;;;;15.55;8.95;;;3.90;99.90;;;;;;6371831;22;20022;-92
2022/03/05 10:36:32;;;;;;;16.52;9.23;;;4.00;99.90;;;;;;6318179;22;20014;-92
2022/03/05 10:39:09;;;;;;;16.75;9.20;;;4.00;99.90;;;;;;6317593;22;20022;-90
2022/03/05 10:41:36;;;;;;;16.23;9.50;;;4.10;99.90;;;;;;6317808;22;20344;-90
2022/03/05 10:44:10;;;;;;;16.25;9.27;;;4.20;99.90;;;;;;6317568;22;20025;-88
2022/03/05 10:47:00;;;;;;;16.55;9.23;;;4.20;99.90;;;;;;6317720;22;20390;-87
2022/03/05 10:49:43;;;;;;;15.02;9.32;;;4.30;99.90;;;;;;6342812;22;20016;-89
2022/03/05 10:52:27;;;;;;;17.70;9.82;;;4.40;99.90;;;;;;6317624;22;20022;-89
2022/03/05 10:55:18;;;;;;;15.27;8.82;;;4.40;99.90;;;;;;6317731;22;20455;-91
2022/03/05 10:57:56;;;;;;;17.27;9.98;;;4.60;99.90;;;;;;6317254;22;20014;-93
2022/03/05 11:00:22;;;;;;;15.35;9.32;;;4.70;99.90;;;;;;6317311;22;20074;-92
2022/03/05 11:02:49;;;;;;;17.55;10.00;;;4.80;99.90;;;;;;6317639;22;20041;-91
2022/03/05 11:05:18;;;;;;;15.88;9.80;;;4.80;99.90;;;;;;6317258;22;20022;-90
2022/03/05 11:07:43;;;;;;;15.38;9.23;;;4.90;99.90;;;;;;6343387;22;20389;-90
2022/03/05 11:10:10;;;;;;;17.77;10.13;;;5.00;99.90;;;;;;6317707;22;20026;-90
2022/03/05 11:12:39;;;;;;;17.60;9.55;;;5.10;99.90;;;;;;6317596;22;20018;-90
2022/03/05 11:15:08;;;;;;;17.77;10.57;;;5.10;99.90;;;;;;6317423;22;20344;-89
2022/03/05 11:17:34;;;;;;;18.88;10.02;;;5.20;99.90;;;;;;6343119;22;20014;-88
2022/03/05 11:20:01;;;;;;;17.43;11.27;;;5.20;99.90;;;;;;6316965;22;20410;-93
2022/03/05 11:22:27;;;;;;;;;;;5.10;99.90;;;;;;6319872;22;20018;-93
2022/03/05 11:24:53;;;;;;;17.35;9.90;;;5.20;99.90;;;;;;6319892;22;19921;-89
2022/03/05 11:27:19;;;;;;;17.50;10.65;;;5.20;99.90;;;;;;6344165;22;20454;-92
2022/03/05 11:29:52;;;;;;;15.73;9.55;;;5.20;99.90;;;;;;6343640;22;20029;-90
2022/03/05 11:32:18;;;;;;;15.73;9.38;;;5.20;99.90;;;;;;6338317;22;20027;-94
2022/03/05 11:34:46;;;;;;;18.05;9.23;;;5.30;99.90;;;;;;6339904;22;20073;-94
2022/03/05 11:37:23;;;;;;;17.88;9.98;;;5.30;99.90;;;;;;6341967;22;20022;-91
2022/03/05 11:39:48;;;;;;;15.43;9.30;;;5.40;99.90;;;;;;6313466;22;20029;-89
2022/03/05 11:42:28;;;;;;;16.43;8.93;;;5.40;99.90;;;;;;6343284;22;20059;-87
2022/03/05 11:44:54;;;;;;;16.02;9.35;;;5.50;99.90;;;;;;6343064;22;20439;-90
2022/03/05 11:47:32;;;;;;;15.27;9.10;;;5.50;99.90;;;;;;6317050;22;20087;-88
2022/03/05 11:49:58;;;;;;;16.08;9.35;;;5.60;99.90;;;;;;6343374;22;20018;-90
2022/03/05 11:52:53;;;;;;;15.10;9.13;;;5.60;99.90;;;;;;6343181;22;20077;-91
2022/03/05 11:55:26;;;;;;;15.15;9.32;;;5.70;99.90;;;;;;6328861;22;20023;-92
2022/03/05 11:57:51;;;;;;;15.43;10.75;;;5.70;99.90;;;;;;6316609;22;20025;-91
2022/03/05 12:00:26;;;;;;;15.07;10.07;;;5.70;99.90;;;;;;6343471;22;20022;-92
2022/03/05 12:02:57;;;;;;;16.38;9.57;;;5.90;99.90;;;;;;6317174;22;20018;-91
2022/03/05 12:05:38;;;;;;;17.10;9.98;;;5.80;99.90;;;;;;6342738;22;20443;-87
2022/03/05 12:08:05;;;;;;;15.95;9.48;;;5.80;99.90;;;;;;6370778;22;20078;-92
2022/03/05 12:10:33;;;;;;;16.20;10.05;;;5.80;99.90;;;;;;6343089;22;20018;-93
2022/03/05 12:13:03;;;;;;;18.10;10.90;;;5.90;99.90;;;;;;6343542;22;20019;-89
2022/03/05 12:15:43;;;;;;;14.90;9.82;;;5.80;99.90;;;;;;6317169;22;20451;-87
2022/03/05 12:18:14;;;;;;;14.88;9.23;;;5.90;99.80;;;;;;6341100;22;20022;-89
2022/03/05 12:20:43;;;;;;;15.27;9.30;;;5.90;98.60;;;;;;6342894;22;20041;-87
2022/03/05 12:23:11;;;;;;;16.80;9.93;;;5.90;97.90;;;;;;6342828;22;20029;-88
2022/03/05 12:25:38;;;;;;;17.83;10.05;;;5.90;97.60;;;;;;6342576;22;20022;-92
2022/03/05 12:28:11;;;;;;;15.85;9.57;;;5.90;98.20;;;;;;6342574;22;20014;-86
2022/03/05 12:30:38;;;;;;;15.60;9.52;;;5.90;97.50;;;;;;6369038;22;20014;-86
2022/03/05 12:33:19;;;;;;;15.95;9.50;;;6.00;98.10;;;;;;6316463;22;20061;-84
2022/03/05 12:35:50;;;;;;;17.55;10.65;;;6.00;97.20;;;;;;6342389;22;20540;-85
2022/03/05 12:38:20;;;;;;;16.65;10.05;;;6.00;97.40;;;;;;6342383;22;20324;-86
2022/03/05 12:40:46;;;;;;;14.93;9.15;;;6.10;98.20;;;;;;6342255;22;20491;-88
2022/03/05 12:43:12;;;;;;;16.03;9.57;;;6.20;98.30;;;;;;6315698;22;20018;-87
2022/03/05 12:45:56;;;;;;;16.83;10.90;;;6.20;98.00;;;;;;6315566;22;20273;-90
2022/03/05 12:48:22;;;;;;;15.70;10.10;;;6.30;98.20;;;;;;6316684;22;20023;-86
2022/03/05 12:50:53;;;;;;;15.43;9.88;;;6.30;97.70;;;;;;6342454;22;20019;-88
2022/03/05 12:53:24;;;;;;;17.50;9.98;;;6.40;97.30;;;;;;6313654;22;20407;-89
2022/03/05 12:56:00;;;;;;;18.00;10.63;;;6.40;96.80;;;;;;6341025;22;20067;-89
2022/03/05 12:58:37;;;;;;;18.23;10.80;;;6.40;97.40;;;;;;6342538;22;20026;-88
2022/03/05 13:01:05;;;;;;;16.27;10.35;;;6.40;97.10;;;;;;6342229;22;20018;-87
2022/03/05 13:03:33;;;;;;;17.17;9.52;;;6.40;97.40;;;;;;6342727;22;20022;-86